createdAt,value
2017-06-09T00:00:00.264Z,13.09
2017-06-09T00:00:04.827Z,12.99
2017-06-09T00:00:08.903Z,13.06
2017-06-09T00:00:13.333Z,13.04
2017-06-09T00:00:17.757Z,13.04
2017-06-09T00:00:22.066Z,13.13
2017-06-09T00:00:26.496Z,13.09
2017-06-09T00:00:30.812Z,13.04
2017-06-09T00:00:34.996Z,12.99
2017-06-09T00:00:39.416Z,12.96
2017-06-09T00:00:43.727Z,13.09
2017-06-09T00:00:48.164Z,13.06
2017-06-09T00:00:52.591Z,13.04
2017-06-09T00:00:56.905Z,12.99
2017-06-09T00:01:01.223Z,12.99
2017-06-09T00:01:05.762Z,12.99
2017-06-09T00:01:10.068Z,13.01
2017-06-09T00:01:14.506Z,12.98
2017-06-09T00:01:18.702Z,12.98
2017-06-09T00:01:23.122Z,12.99
2017-06-09T00:01:27.547Z,13.07
2017-06-09T00:01:31.859Z,12.99
2017-06-09T00:01:36.090Z,13.04
2017-06-09T00:01:40.164Z,12.95
2017-06-09T00:01:44.474Z,13.03
2017-06-09T00:01:48.937Z,13.01
2017-06-09T00:01:53.369Z,12.96
2017-06-09T00:01:57.794Z,12.99
2017-06-09T00:02:02.217Z,12.98
2017-06-09T00:02:06.427Z,12.99
2017-06-09T00:02:10.616Z,13.01
2017-06-09T00:02:14.921Z,12.96
2017-06-09T00:02:19.228Z,13.03
2017-06-09T00:02:23.659Z,13.01
2017-06-09T00:02:27.885Z,12.98
2017-06-09T00:02:32.303Z,12.95
2017-06-09T00:02:36.612Z,12.95
2017-06-09T00:02:40.922Z,13.01
2017-06-09T00:02:45.348Z,12.95
2017-06-09T00:02:49.776Z,12.96
2017-06-09T00:02:54.194Z,12.99
2017-06-09T00:02:58.625Z,13.03
2017-06-09T00:03:03.049Z,12.96
2017-06-09T00:03:07.369Z,12.99
2017-06-09T00:03:11.791Z,12.95
2017-06-09T00:03:16.239Z,12.95
2017-06-09T00:03:20.540Z,13.03
2017-06-09T00:03:24.963Z,12.95
2017-06-09T00:03:29.268Z,12.96
2017-06-09T00:03:33.345Z,13.01
2017-06-09T00:03:37.780Z,12.98
2017-06-09T00:03:42.202Z,13.01
2017-06-09T00:03:46.507Z,13.03
2017-06-09T00:03:50.934Z,12.95
2017-06-09T00:03:55.355Z,13.03
2017-06-09T00:03:59.789Z,13.06
2017-06-09T00:04:03.872Z,12.98
2017-06-09T00:04:08.201Z,12.99
2017-06-09T00:04:12.505Z,12.99
2017-06-09T00:04:16.923Z,12.98
2017-06-09T00:04:21.239Z,12.96
2017-06-09T00:04:25.546Z,12.99
2017-06-09T00:04:29.856Z,12.99
2017-06-09T00:04:34.282Z,12.95
2017-06-09T00:04:38.593Z,12.94
2017-06-09T00:04:43.057Z,12.96
2017-06-09T00:04:47.363Z,13.01
2017-06-09T00:04:51.787Z,13.01
2017-06-09T00:04:56.216Z,13.01
2017-06-09T00:05:00.637Z,12.95
2017-06-09T00:05:05.075Z,12.95
2017-06-09T00:05:09.508Z,12.95
2017-06-09T00:05:13.939Z,12.95
2017-06-09T00:05:18.398Z,12.98
2017-06-09T00:05:22.820Z,12.99
2017-06-09T00:05:27.239Z,12.96
2017-06-09T00:05:31.448Z,12.95
2017-06-09T00:05:35.523Z,12.94
2017-06-09T00:05:39.829Z,13.01
2017-06-09T00:05:44.258Z,12.94
2017-06-09T00:05:48.571Z,12.94
2017-06-09T00:05:52.994Z,12.94
2017-06-09T00:05:57.424Z,12.89
2017-06-09T00:06:01.735Z,12.98
2017-06-09T00:06:06.155Z,12.92
2017-06-09T00:06:10.340Z,12.94
2017-06-09T00:06:14.770Z,12.95
2017-06-09T00:06:19.117Z,12.98
2017-06-09T00:06:23.541Z,12.98
2017-06-09T00:06:27.967Z,12.92
2017-06-09T00:06:32.160Z,12.95
2017-06-09T00:06:36.508Z,12.94
2017-06-09T00:06:40.929Z,12.95
2017-06-09T00:06:45.241Z,12.95
2017-06-09T00:06:49.427Z,12.92
2017-06-09T00:06:53.861Z,12.96
2017-06-09T00:06:58.298Z,12.91
2017-06-09T00:07:02.722Z,12.95
2017-06-09T00:07:07.150Z,12.96
2017-06-09T00:07:11.577Z,12.96
2017-06-09T00:07:15.884Z,12.92
2017-06-09T00:07:20.073Z,12.94
2017-06-09T00:07:24.383Z,12.92
2017-06-09T00:07:28.810Z,12.92
2017-06-09T00:07:33.237Z,12.94
2017-06-09T00:07:37.537Z,12.92
2017-06-09T00:07:41.958Z,12.89
2017-06-09T00:07:46.268Z,12.96
2017-06-09T00:07:50.588Z,12.96
2017-06-09T00:07:55.016Z,12.98
2017-06-09T00:07:59.434Z,12.92
2017-06-09T00:08:03.792Z,12.92
2017-06-09T00:08:08.023Z,12.91
2017-06-09T00:08:12.327Z,12.89
2017-06-09T00:08:16.751Z,12.94
2017-06-09T00:08:20.844Z,12.95
2017-06-09T00:08:25.154Z,12.92
2017-06-09T00:08:29.575Z,12.89
2017-06-09T00:08:33.877Z,12.89
2017-06-09T00:08:38.066Z,12.88
2017-06-09T00:08:42.378Z,12.91
2017-06-09T00:08:46.797Z,12.94
2017-06-09T00:08:51.104Z,12.87
2017-06-09T00:08:55.406Z,12.92
2017-06-09T00:08:59.837Z,12.89
2017-06-09T00:09:04.519Z,12.88
2017-06-09T00:09:08.829Z,12.87
2017-06-09T00:09:13.145Z,12.88
2017-06-09T00:09:17.574Z,12.85
2017-06-09T00:09:21.878Z,12.88
2017-06-09T00:09:26.305Z,12.92
2017-06-09T00:09:30.732Z,12.88
2017-06-09T00:09:35.154Z,12.87
2017-06-09T00:09:39.580Z,12.94
2017-06-09T00:09:44.053Z,12.87
2017-06-09T00:09:48.477Z,12.81
2017-06-09T00:09:52.898Z,12.87
2017-06-09T00:09:57.321Z,12.85
2017-06-09T00:10:02.002Z,12.81
2017-06-09T00:10:06.311Z,12.89
2017-06-09T00:10:10.505Z,12.84
2017-06-09T00:10:14.730Z,12.76
2017-06-09T00:10:18.919Z,12.87
2017-06-09T00:10:23.229Z,12.8
2017-06-09T00:10:27.655Z,12.8
2017-06-09T00:10:31.972Z,12.88
2017-06-09T00:10:36.282Z,12.85
2017-06-09T00:10:40.589Z,12.8
2017-06-09T00:10:45.017Z,12.79
2017-06-09T00:10:49.450Z,12.81
2017-06-09T00:10:53.876Z,12.84
2017-06-09T00:10:58.187Z,12.85
2017-06-09T00:11:02.863Z,12.79
2017-06-09T00:11:07.315Z,12.73
2017-06-09T00:11:11.504Z,12.8
2017-06-09T00:11:15.696Z,12.73
2017-06-09T00:11:19.769Z,12.87
2017-06-09T00:11:24.208Z,12.85
2017-06-09T00:11:28.671Z,12.81
2017-06-09T00:11:32.973Z,12.85
2017-06-09T00:11:37.402Z,12.85
2017-06-09T00:11:41.607Z,12.81
2017-06-09T00:11:46.031Z,12.85
2017-06-09T00:11:50.339Z,12.8
2017-06-09T00:11:54.758Z,12.79
2017-06-09T00:11:59.197Z,12.84
2017-06-09T00:12:03.507Z,12.88
2017-06-09T00:12:07.575Z,12.88
2017-06-09T00:12:11.882Z,12.84
2017-06-09T00:12:16.247Z,12.84
2017-06-09T00:12:20.683Z,12.84
2017-06-09T00:12:25.114Z,12.87
2017-06-09T00:12:29.544Z,12.8
2017-06-09T00:12:33.863Z,12.87
2017-06-09T00:12:38.287Z,12.84
2017-06-09T00:12:42.477Z,12.85
2017-06-09T00:12:46.903Z,12.8
2017-06-09T00:12:51.218Z,12.76
2017-06-09T00:12:55.645Z,12.84
2017-06-09T00:13:00.065Z,12.87
2017-06-09T00:13:04.509Z,12.73
2017-06-09T00:13:08.816Z,12.8
2017-06-09T00:13:13.121Z,12.84
2017-06-09T00:13:17.425Z,12.84
2017-06-09T00:13:21.736Z,12.85
2017-06-09T00:13:26.176Z,12.74
2017-06-09T00:13:30.599Z,12.84
2017-06-09T00:13:34.906Z,12.81
2017-06-09T00:13:39.213Z,12.8
2017-06-09T00:13:43.542Z,12.8
2017-06-09T00:13:47.969Z,12.84
2017-06-09T00:13:52.277Z,12.85
2017-06-09T00:13:56.702Z,12.89
2017-06-09T00:14:01.016Z,12.79
2017-06-09T00:14:05.328Z,12.81
2017-06-09T00:14:09.634Z,12.84
2017-06-09T00:14:13.946Z,12.87
2017-06-09T00:14:18.139Z,12.87
2017-06-09T00:14:22.442Z,12.81
2017-06-09T00:14:26.864Z,12.88
2017-06-09T00:14:31.058Z,12.85
2017-06-09T00:14:35.493Z,12.84
2017-06-09T00:14:39.926Z,12.88
2017-06-09T00:14:44.231Z,12.85
2017-06-09T00:14:48.540Z,12.84
2017-06-09T00:14:52.978Z,12.85
2017-06-09T00:14:57.402Z,12.89
2017-06-09T00:15:01.825Z,12.84
2017-06-09T00:15:06.265Z,12.89
2017-06-09T00:15:10.608Z,12.88
2017-06-09T00:15:14.914Z,12.92
2017-06-09T00:15:19.111Z,12.87
2017-06-09T00:15:23.533Z,12.85
2017-06-09T00:15:27.969Z,12.87
2017-06-09T00:15:32.320Z,12.85
2017-06-09T00:15:36.745Z,12.91
2017-06-09T00:15:41.052Z,12.91
2017-06-09T00:15:45.484Z,12.87
2017-06-09T00:15:49.948Z,12.84
2017-06-09T00:15:54.369Z,12.87
2017-06-09T00:15:58.793Z,12.85
2017-06-09T00:16:03.287Z,12.84
2017-06-09T00:16:07.712Z,12.85
2017-06-09T00:16:12.138Z,12.88
2017-06-09T00:16:16.330Z,12.91
2017-06-09T00:16:20.791Z,12.92
2017-06-09T00:16:25.220Z,12.81
2017-06-09T00:16:29.640Z,12.81
2017-06-09T00:16:33.947Z,12.88
2017-06-09T00:16:38.379Z,12.88
2017-06-09T00:16:42.726Z,12.85
2017-06-09T00:16:47.151Z,12.88
2017-06-09T00:16:51.462Z,12.92
2017-06-09T00:16:55.894Z,12.87
2017-06-09T00:17:00.363Z,12.84
2017-06-09T00:17:04.933Z,12.85
2017-06-09T00:17:09.363Z,12.87
2017-06-09T00:17:13.677Z,12.85
2017-06-09T00:17:17.981Z,12.91
2017-06-09T00:17:22.054Z,12.92
2017-06-09T00:17:26.477Z,12.89
2017-06-09T00:17:30.904Z,12.89
2017-06-09T00:17:35.100Z,12.87
2017-06-09T00:17:39.410Z,12.92
2017-06-09T00:17:43.716Z,12.87
2017-06-09T00:17:47.913Z,12.87
2017-06-09T00:17:52.337Z,12.87
2017-06-09T00:17:56.764Z,12.88
2017-06-09T00:18:01.190Z,12.85
2017-06-09T00:18:05.558Z,12.84
2017-06-09T00:18:09.904Z,12.88
2017-06-09T00:18:14.091Z,12.91
2017-06-09T00:18:18.521Z,12.85
2017-06-09T00:18:22.947Z,12.89
2017-06-09T00:18:27.375Z,12.89
2017-06-09T00:18:31.681Z,12.87
2017-06-09T00:18:36.103Z,12.95
2017-06-09T00:18:40.524Z,12.87
2017-06-09T00:18:44.742Z,12.87
2017-06-09T00:18:49.047Z,12.91
2017-06-09T00:18:53.469Z,12.87
2017-06-09T00:18:57.894Z,12.85
2017-06-09T00:19:02.513Z,12.89
2017-06-09T00:19:06.937Z,12.87
2017-06-09T00:19:11.354Z,12.89
2017-06-09T00:19:15.549Z,12.87
2017-06-09T00:19:20.005Z,12.87
2017-06-09T00:19:24.311Z,12.85
2017-06-09T00:19:28.617Z,12.84
2017-06-09T00:19:33.044Z,12.91
2017-06-09T00:19:37.481Z,12.87
2017-06-09T00:19:41.783Z,12.85
2017-06-09T00:19:46.086Z,12.92
2017-06-09T00:19:50.393Z,12.84
2017-06-09T00:19:54.854Z,12.85
2017-06-09T00:19:59.287Z,12.81
2017-06-09T00:20:03.910Z,12.89
2017-06-09T00:20:08.220Z,12.85
2017-06-09T00:20:12.415Z,12.85
2017-06-09T00:20:16.719Z,12.8
2017-06-09T00:20:20.794Z,12.8
2017-06-09T00:20:25.216Z,12.85
2017-06-09T00:20:29.648Z,12.81
2017-06-09T00:20:34.082Z,12.85
2017-06-09T00:20:38.274Z,12.85
2017-06-09T00:20:42.699Z,12.84
2017-06-09T00:20:47.047Z,12.85
2017-06-09T00:20:51.355Z,12.85
2017-06-09T00:20:55.657Z,12.84
2017-06-09T00:21:00.079Z,12.79
2017-06-09T00:21:04.503Z,12.79
2017-06-09T00:21:08.808Z,12.8
2017-06-09T00:21:13.119Z,12.84
2017-06-09T00:21:17.429Z,12.85
2017-06-09T00:21:21.783Z,12.7
2017-06-09T00:21:26.089Z,12.84
2017-06-09T00:21:30.402Z,12.8
2017-06-09T00:21:34.605Z,12.76
2017-06-09T00:21:39.033Z,12.73
2017-06-09T00:21:43.348Z,12.76
2017-06-09T00:21:47.780Z,12.79
2017-06-09T00:21:52.091Z,12.84
2017-06-09T00:21:56.517Z,12.8
2017-06-09T00:22:00.944Z,12.84
2017-06-09T00:22:05.300Z,12.81
2017-06-09T00:22:09.492Z,12.79
2017-06-09T00:22:13.916Z,12.74
2017-06-09T00:22:18.364Z,12.81
2017-06-09T00:22:22.829Z,12.79
2017-06-09T00:22:27.135Z,12.77
2017-06-09T00:22:31.571Z,12.79
2017-06-09T00:22:35.780Z,12.7
2017-06-09T00:22:40.092Z,12.77
2017-06-09T00:22:44.522Z,12.77
2017-06-09T00:22:48.991Z,12.85
2017-06-09T00:22:53.414Z,12.73
2017-06-09T00:22:57.719Z,12.74
2017-06-09T00:23:02.140Z,12.71
2017-06-09T00:23:06.602Z,12.76
2017-06-09T00:23:11.032Z,12.73
2017-06-09T00:23:15.463Z,12.79
2017-06-09T00:23:19.665Z,12.76
2017-06-09T00:23:23.973Z,12.71
2017-06-09T00:23:28.044Z,12.76
2017-06-09T00:23:32.356Z,12.74
2017-06-09T00:23:36.789Z,12.76
2017-06-09T00:23:41.217Z,12.76
2017-06-09T00:23:45.640Z,12.7
2017-06-09T00:23:50.063Z,12.7
2017-06-09T00:23:54.384Z,12.73
2017-06-09T00:23:58.689Z,12.71
2017-06-09T00:24:03.114Z,12.73
2017-06-09T00:24:07.601Z,12.76
2017-06-09T00:24:11.672Z,12.69
2017-06-09T00:24:16.091Z,12.73
2017-06-09T00:24:20.397Z,12.71
2017-06-09T00:24:24.591Z,12.7
2017-06-09T00:24:28.900Z,12.74
2017-06-09T00:24:33.325Z,12.7
2017-06-09T00:24:37.755Z,12.69
2017-06-09T00:24:41.943Z,12.7
2017-06-09T00:24:46.248Z,12.7
2017-06-09T00:24:50.555Z,12.7
2017-06-09T00:24:54.977Z,12.71
2017-06-09T00:24:59.284Z,12.73
2017-06-09T00:25:04.061Z,12.73
2017-06-09T00:25:08.365Z,12.73
2017-06-09T00:25:12.563Z,12.62
2017-06-09T00:25:16.989Z,12.67
2017-06-09T00:25:21.294Z,12.73
2017-06-09T00:25:25.599Z,12.69
2017-06-09T00:25:29.914Z,12.66
2017-06-09T00:25:34.353Z,12.76
2017-06-09T00:25:38.784Z,12.63
2017-06-09T00:25:43.209Z,12.62
2017-06-09T00:25:47.640Z,12.67
2017-06-09T00:25:51.951Z,12.63
2017-06-09T00:25:56.380Z,12.66
2017-06-09T00:26:00.573Z,12.63
2017-06-09T00:26:05.172Z,12.69
2017-06-09T00:26:09.490Z,12.69
2017-06-09T00:26:13.799Z,12.67
2017-06-09T00:26:17.989Z,12.62
2017-06-09T00:26:22.421Z,12.62
2017-06-09T00:26:26.627Z,12.71
2017-06-09T00:26:31.057Z,12.66
2017-06-09T00:26:35.368Z,12.67
2017-06-09T00:26:39.802Z,12.63
2017-06-09T00:26:44.269Z,12.63
2017-06-09T00:26:48.692Z,12.61
2017-06-09T00:26:53.006Z,12.67
2017-06-09T00:26:57.431Z,12.66
2017-06-09T00:27:01.928Z,12.67
2017-06-09T00:27:06.236Z,12.66
2017-06-09T00:27:10.540Z,12.69
2017-06-09T00:27:14.853Z,12.62
2017-06-09T00:27:19.162Z,12.61
2017-06-09T00:27:23.469Z,12.61
2017-06-09T00:27:27.781Z,12.71
2017-06-09T00:27:32.210Z,12.61
2017-06-09T00:27:36.638Z,12.63
2017-06-09T00:27:40.951Z,12.67
2017-06-09T00:27:45.379Z,12.69
2017-06-09T00:27:49.837Z,12.62
2017-06-09T00:27:54.268Z,12.62
2017-06-09T00:27:58.583Z,12.66
2017-06-09T00:28:03.295Z,12.7
2017-06-09T00:28:07.726Z,12.63
2017-06-09T00:28:12.037Z,12.7
2017-06-09T00:28:16.223Z,12.67
2017-06-09T00:28:20.537Z,12.71
2017-06-09T00:28:24.842Z,12.62
2017-06-09T00:28:29.265Z,12.63
2017-06-09T00:28:33.569Z,12.63
2017-06-09T00:28:37.994Z,12.7
2017-06-09T00:28:42.296Z,12.7
2017-06-09T00:28:46.727Z,12.62
2017-06-09T00:28:50.921Z,12.69
2017-06-09T00:28:55.346Z,12.69
2017-06-09T00:28:59.769Z,12.61
2017-06-09T00:29:04.072Z,12.7
2017-06-09T00:29:08.383Z,12.61
2017-06-09T00:29:12.585Z,12.71
2017-06-09T00:29:16.888Z,12.69
2017-06-09T00:29:20.959Z,12.7
2017-06-09T00:29:25.381Z,12.61
2017-06-09T00:29:29.817Z,12.66
2017-06-09T00:29:34.129Z,12.62
2017-06-09T00:29:38.557Z,12.67
2017-06-09T00:29:42.990Z,12.62
2017-06-09T00:29:47.294Z,12.69
2017-06-09T00:29:51.604Z,12.62
2017-06-09T00:29:56.030Z,12.71
2017-06-09T00:30:00.458Z,12.7
2017-06-09T00:30:04.886Z,12.7
2017-06-09T00:30:09.200Z,12.62
2017-06-09T00:30:13.510Z,12.63
2017-06-09T00:30:17.703Z,12.62
2017-06-09T00:30:22.129Z,12.71
2017-06-09T00:30:26.562Z,12.67
2017-06-09T00:30:31.029Z,12.63
2017-06-09T00:30:35.461Z,12.71
2017-06-09T00:30:39.645Z,12.7
2017-06-09T00:30:44.073Z,12.7
2017-06-09T00:30:48.503Z,12.7
2017-06-09T00:30:52.692Z,12.67
2017-06-09T00:30:57.126Z,12.69
2017-06-09T00:31:01.430Z,12.59
2017-06-09T00:31:05.916Z,12.69
2017-06-09T00:31:10.339Z,12.58
2017-06-09T00:31:14.769Z,12.67
2017-06-09T00:31:19.096Z,12.66
2017-06-09T00:31:23.289Z,12.7
2017-06-09T00:31:27.603Z,12.69
2017-06-09T00:31:32.026Z,12.67
2017-06-09T00:31:36.339Z,12.69
2017-06-09T00:31:40.649Z,12.67
2017-06-09T00:31:44.957Z,12.66
2017-06-09T00:31:49.271Z,12.66
2017-06-09T00:31:53.584Z,12.7
2017-06-09T00:31:57.777Z,12.74
2017-06-09T00:32:02.317Z,12.66
2017-06-09T00:32:06.515Z,12.7
2017-06-09T00:32:10.823Z,12.67
2017-06-09T00:32:15.129Z,12.7
2017-06-09T00:32:19.440Z,12.66
2017-06-09T00:32:23.911Z,12.66
2017-06-09T00:32:28.335Z,12.67
2017-06-09T00:32:32.761Z,12.66
2017-06-09T00:32:36.965Z,12.67
2017-06-09T00:32:41.407Z,12.69
2017-06-09T00:32:45.831Z,12.67
2017-06-09T00:32:50.142Z,12.7
2017-06-09T00:32:54.569Z,12.61
2017-06-09T00:32:58.992Z,12.63
2017-06-09T00:33:03.226Z,12.69
2017-06-09T00:33:07.648Z,12.67
2017-06-09T00:33:11.990Z,12.62
2017-06-09T00:33:16.416Z,12.58
2017-06-09T00:33:20.725Z,12.61
2017-06-09T00:33:25.150Z,12.59
2017-06-09T00:33:29.582Z,12.69
2017-06-09T00:33:34.004Z,12.61
2017-06-09T00:33:38.424Z,12.66
2017-06-09T00:33:42.731Z,12.61
2017-06-09T00:33:47.159Z,12.61
2017-06-09T00:33:51.352Z,12.66
2017-06-09T00:33:55.772Z,12.67
2017-06-09T00:33:59.962Z,12.61
2017-06-09T00:34:04.391Z,12.69
2017-06-09T00:34:08.595Z,12.59
2017-06-09T00:34:13.017Z,12.58
2017-06-09T00:34:17.209Z,12.59
2017-06-09T00:34:21.634Z,12.55
2017-06-09T00:34:26.059Z,12.61
2017-06-09T00:34:30.360Z,12.66
2017-06-09T00:34:34.782Z,12.58
2017-06-09T00:34:38.742Z,12.58
2017-06-09T00:34:43.051Z,12.61
2017-06-09T00:34:47.480Z,12.55
2017-06-09T00:34:51.911Z,12.54
2017-06-09T00:34:56.343Z,12.61
2017-06-09T00:35:00.674Z,12.61
2017-06-09T00:35:04.862Z,12.67
2017-06-09T00:35:09.048Z,12.54
2017-06-09T00:35:13.481Z,12.59
2017-06-09T00:35:17.681Z,12.55
2017-06-09T00:35:21.985Z,12.59
2017-06-09T00:35:26.294Z,12.55
2017-06-09T00:35:30.646Z,12.61
2017-06-09T00:35:35.072Z,12.54
2017-06-09T00:35:39.259Z,12.58
2017-06-09T00:35:43.684Z,12.62
2017-06-09T00:35:48.000Z,12.55
2017-06-09T00:35:52.316Z,12.58
2017-06-09T00:35:56.742Z,12.55
2017-06-09T00:36:01.058Z,12.59
2017-06-09T00:36:05.214Z,12.52
2017-06-09T00:36:09.413Z,12.56
2017-06-09T00:36:13.838Z,12.58
2017-06-09T00:36:18.156Z,12.58
2017-06-09T00:36:22.507Z,12.52
2017-06-09T00:36:26.935Z,12.56
2017-06-09T00:36:31.365Z,12.58
2017-06-09T00:36:35.794Z,12.58
2017-06-09T00:36:40.218Z,12.61
2017-06-09T00:36:44.655Z,12.55
2017-06-09T00:36:48.965Z,12.54
2017-06-09T00:36:53.160Z,12.52
2017-06-09T00:36:57.592Z,12.59
2017-06-09T00:37:02.024Z,12.58
2017-06-09T00:37:06.339Z,12.51
2017-06-09T00:37:10.646Z,12.52
2017-06-09T00:37:14.836Z,12.48
2017-06-09T00:37:19.145Z,12.51
2017-06-09T00:37:23.452Z,12.54
2017-06-09T00:37:27.882Z,12.56
2017-06-09T00:37:32.192Z,12.59
2017-06-09T00:37:36.505Z,12.51
2017-06-09T00:37:40.585Z,12.59
2017-06-09T00:37:45.010Z,12.55
2017-06-09T00:37:49.439Z,12.56
2017-06-09T00:37:53.863Z,12.52
2017-06-09T00:37:58.173Z,12.58
2017-06-09T00:38:02.484Z,12.58
2017-06-09T00:38:06.709Z,12.56
2017-06-09T00:38:11.015Z,12.55
2017-06-09T00:38:15.214Z,12.54
2017-06-09T00:38:19.524Z,12.55
2017-06-09T00:38:23.834Z,12.54
2017-06-09T00:38:28.264Z,12.52
2017-06-09T00:38:32.570Z,12.56
2017-06-09T00:38:36.882Z,12.48
2017-06-09T00:38:41.304Z,12.55
2017-06-09T00:38:45.612Z,12.56
2017-06-09T00:38:49.927Z,12.58
2017-06-09T00:38:54.348Z,12.51
2017-06-09T00:38:58.775Z,12.58
2017-06-09T00:39:03.305Z,12.54
2017-06-09T00:39:07.625Z,12.51
2017-06-09T00:39:12.054Z,12.52
2017-06-09T00:39:16.478Z,12.54
2017-06-09T00:39:20.672Z,12.49
2017-06-09T00:39:25.014Z,12.52
2017-06-09T00:39:29.443Z,12.49
2017-06-09T00:39:33.759Z,12.46
2017-06-09T00:39:38.064Z,12.51
2017-06-09T00:39:42.378Z,12.55
2017-06-09T00:39:46.798Z,12.46
2017-06-09T00:39:51.221Z,12.52
2017-06-09T00:39:55.647Z,12.48
2017-06-09T00:40:00.078Z,12.52
2017-06-09T00:40:04.507Z,12.54
2017-06-09T00:40:08.582Z,12.51
2017-06-09T00:40:13.006Z,12.44
2017-06-09T00:40:17.434Z,12.48
2017-06-09T00:40:21.743Z,12.44
2017-06-09T00:40:26.057Z,12.44
2017-06-09T00:40:30.415Z,12.48
2017-06-09T00:40:34.836Z,12.46
2017-06-09T00:40:39.144Z,12.51
2017-06-09T00:40:43.450Z,12.54
2017-06-09T00:40:47.909Z,12.51
2017-06-09T00:40:52.339Z,12.48
2017-06-09T00:40:56.528Z,12.49
2017-06-09T00:41:00.957Z,12.54
2017-06-09T00:41:05.682Z,12.51
2017-06-09T00:41:09.988Z,12.55
2017-06-09T00:41:14.289Z,12.51
2017-06-09T00:41:18.715Z,12.49
2017-06-09T00:41:23.137Z,12.49
2017-06-09T00:41:27.563Z,12.54
2017-06-09T00:41:31.992Z,12.55
2017-06-09T00:41:36.427Z,12.55
2017-06-09T00:41:40.850Z,12.55
2017-06-09T00:41:45.049Z,12.55
2017-06-09T00:41:49.476Z,12.55
2017-06-09T00:41:53.911Z,12.55
2017-06-09T00:41:58.333Z,12.51
2017-06-09T00:42:02.756Z,12.54
2017-06-09T00:42:07.062Z,12.54
2017-06-09T00:42:11.501Z,12.52
2017-06-09T00:42:15.816Z,12.55
2017-06-09T00:42:20.236Z,12.54
2017-06-09T00:42:24.540Z,12.58
2017-06-09T00:42:28.856Z,12.52
2017-06-09T00:42:33.045Z,12.58
2017-06-09T00:42:37.466Z,12.61
2017-06-09T00:42:41.769Z,12.52
2017-06-09T00:42:46.208Z,12.55
2017-06-09T00:42:50.638Z,12.58
2017-06-09T00:42:54.943Z,12.61
2017-06-09T00:42:59.366Z,12.59
2017-06-09T00:43:03.937Z,12.67
2017-06-09T00:43:08.133Z,12.66
2017-06-09T00:43:12.201Z,12.7
2017-06-09T00:43:16.507Z,12.67
2017-06-09T00:43:20.932Z,12.69
2017-06-09T00:43:25.366Z,12.62
2017-06-09T00:43:29.560Z,12.63
2017-06-09T00:43:33.990Z,12.66
2017-06-09T00:43:38.422Z,12.62
2017-06-09T00:43:42.864Z,12.67
2017-06-09T00:43:47.288Z,12.69
2017-06-09T00:43:51.706Z,12.76
2017-06-09T00:43:56.139Z,12.71
2017-06-09T00:44:00.568Z,12.77
2017-06-09T00:44:04.991Z,12.74
2017-06-09T00:44:09.296Z,12.74
2017-06-09T00:44:13.496Z,12.71
2017-06-09T00:44:17.690Z,12.74
2017-06-09T00:44:22.113Z,12.71
2017-06-09T00:44:26.421Z,12.77
2017-06-09T00:44:30.780Z,12.84
2017-06-09T00:44:35.224Z,12.73
2017-06-09T00:44:39.534Z,12.87
2017-06-09T00:44:43.965Z,12.85
2017-06-09T00:44:48.391Z,12.87
2017-06-09T00:44:52.818Z,12.92
2017-06-09T00:44:57.127Z,12.81
2017-06-09T00:45:01.552Z,12.84
2017-06-09T00:45:05.627Z,12.94
2017-06-09T00:45:09.935Z,12.89
2017-06-09T00:45:14.367Z,12.88
2017-06-09T00:45:18.684Z,12.89
2017-06-09T00:45:22.996Z,12.91
2017-06-09T00:45:27.425Z,12.96
2017-06-09T00:45:31.733Z,12.95
2017-06-09T00:45:36.160Z,12.94
2017-06-09T00:45:40.587Z,12.95
2017-06-09T00:45:45.011Z,12.96
2017-06-09T00:45:49.440Z,12.92
2017-06-09T00:45:53.876Z,13.04
2017-06-09T00:45:58.061Z,12.94
2017-06-09T00:46:02.733Z,12.94
2017-06-09T00:46:07.164Z,12.98
2017-06-09T00:46:11.246Z,13.04
2017-06-09T00:46:15.670Z,13.06
2017-06-09T00:46:19.972Z,13.01
2017-06-09T00:46:24.403Z,13.04
2017-06-09T00:46:28.829Z,12.99
2017-06-09T00:46:33.256Z,13.13
2017-06-09T00:46:37.689Z,13.13
2017-06-09T00:46:41.884Z,13.09
2017-06-09T00:46:46.313Z,13.13
2017-06-09T00:46:50.740Z,13.1
2017-06-09T00:46:54.928Z,13.13
2017-06-09T00:46:59.005Z,13.09
2017-06-09T00:47:03.529Z,13.16
2017-06-09T00:47:07.955Z,13.09
2017-06-09T00:47:12.146Z,13.14
2017-06-09T00:47:16.459Z,13.12
2017-06-09T00:47:20.809Z,13.14
2017-06-09T00:47:25.231Z,13.22
2017-06-09T00:47:29.662Z,13.21
2017-06-09T00:47:33.862Z,13.21
2017-06-09T00:47:38.292Z,13.22
2017-06-09T00:47:42.715Z,13.19
2017-06-09T00:47:47.151Z,13.28
2017-06-09T00:47:51.461Z,13.16
2017-06-09T00:47:55.650Z,13.25
2017-06-09T00:48:00.073Z,13.28
2017-06-09T00:48:04.694Z,13.28
2017-06-09T00:48:09.125Z,13.31
2017-06-09T00:48:13.438Z,13.24
2017-06-09T00:48:18.041Z,13.28
2017-06-09T00:48:22.238Z,13.22
2017-06-09T00:48:26.548Z,13.22
2017-06-09T00:48:30.986Z,13.24
2017-06-09T00:48:35.290Z,13.24
2017-06-09T00:48:39.721Z,13.27
2017-06-09T00:48:43.918Z,13.36
2017-06-09T00:48:48.264Z,13.32
2017-06-09T00:48:52.695Z,13.35
2017-06-09T00:48:57.116Z,13.29
2017-06-09T00:49:01.420Z,13.35
2017-06-09T00:49:05.984Z,13.35
2017-06-09T00:49:10.172Z,13.28
2017-06-09T00:49:14.357Z,13.35
2017-06-09T00:49:18.549Z,13.39
2017-06-09T00:49:22.856Z,13.39
2017-06-09T00:49:27.280Z,13.36
2017-06-09T00:49:31.585Z,13.38
2017-06-09T00:49:36.021Z,13.35
2017-06-09T00:49:40.335Z,13.35
2017-06-09T00:49:44.758Z,13.43
2017-06-09T00:49:49.179Z,13.28
2017-06-09T00:49:53.487Z,13.41
2017-06-09T00:49:57.795Z,13.31
2017-06-09T00:50:02.102Z,13.41
2017-06-09T00:50:06.412Z,13.44
2017-06-09T00:50:10.726Z,13.44
2017-06-09T00:50:14.954Z,13.41
2017-06-09T00:50:19.261Z,13.39
2017-06-09T00:50:23.456Z,13.41
2017-06-09T00:50:27.885Z,13.43
2017-06-09T00:50:32.319Z,13.46
2017-06-09T00:50:36.626Z,13.43
2017-06-09T00:50:41.046Z,13.41
2017-06-09T00:50:45.348Z,13.38
2017-06-09T00:50:49.556Z,13.44
2017-06-09T00:50:53.989Z,13.43
2017-06-09T00:50:58.299Z,13.44
2017-06-09T00:51:02.813Z,13.44
2017-06-09T00:51:07.257Z,13.44
2017-06-09T00:51:11.682Z,13.35
2017-06-09T00:51:16.005Z,13.44
2017-06-09T00:51:20.357Z,13.43
2017-06-09T00:51:24.788Z,13.43
2017-06-09T00:51:29.222Z,13.41
2017-06-09T00:51:33.656Z,13.36
2017-06-09T00:51:38.108Z,13.43
2017-06-09T00:51:42.423Z,13.35
2017-06-09T00:51:46.849Z,13.43
2017-06-09T00:51:51.036Z,13.41
2017-06-09T00:51:55.502Z,13.44
2017-06-09T00:51:59.807Z,13.43
2017-06-09T00:52:04.236Z,13.47
2017-06-09T00:52:08.545Z,13.46
2017-06-09T00:52:12.982Z,13.44
2017-06-09T00:52:17.174Z,13.46
2017-06-09T00:52:21.248Z,13.48
2017-06-09T00:52:25.678Z,13.47
2017-06-09T00:52:30.104Z,13.32
2017-06-09T00:52:34.531Z,13.43
2017-06-09T00:52:38.960Z,13.43
2017-06-09T00:52:43.261Z,13.39
2017-06-09T00:52:47.452Z,13.43
2017-06-09T00:52:51.758Z,13.39
2017-06-09T00:52:56.058Z,13.44
2017-06-09T00:53:00.488Z,13.47
2017-06-09T00:53:04.806Z,13.41
2017-06-09T00:53:09.112Z,13.39
2017-06-09T00:53:13.534Z,13.43
2017-06-09T00:53:17.846Z,13.44
2017-06-09T00:53:22.275Z,13.31
2017-06-09T00:53:26.697Z,13.48
2017-06-09T00:53:30.889Z,13.27
2017-06-09T00:53:35.312Z,13.38
2017-06-09T00:53:39.500Z,13.43
2017-06-09T00:53:43.816Z,13.44
2017-06-09T00:53:48.236Z,13.43
2017-06-09T00:53:52.666Z,13.38
2017-06-09T00:53:56.979Z,13.32
2017-06-09T00:54:01.290Z,13.35
2017-06-09T00:54:05.720Z,13.36
2017-06-09T00:54:10.028Z,13.43
2017-06-09T00:54:14.336Z,13.43
2017-06-09T00:54:18.770Z,13.41
2017-06-09T00:54:23.082Z,13.35
2017-06-09T00:54:27.508Z,13.47
2017-06-09T00:54:31.942Z,13.28
2017-06-09T00:54:36.375Z,13.41
2017-06-09T00:54:40.809Z,13.47
2017-06-09T00:54:45.238Z,13.44
2017-06-09T00:54:49.670Z,13.46
2017-06-09T00:54:54.096Z,13.38
2017-06-09T00:54:58.413Z,13.41
2017-06-09T00:55:02.871Z,13.28
2017-06-09T00:55:07.302Z,13.44
2017-06-09T00:55:11.610Z,13.41
2017-06-09T00:55:15.803Z,13.43
2017-06-09T00:55:19.999Z,13.41
2017-06-09T00:55:24.421Z,13.38
2017-06-09T00:55:28.843Z,13.41
2017-06-09T00:55:33.276Z,13.35
2017-06-09T00:55:37.478Z,13.39
2017-06-09T00:55:41.904Z,13.28
2017-06-09T00:55:46.329Z,13.39
2017-06-09T00:55:50.646Z,13.39
2017-06-09T00:55:54.958Z,13.43
2017-06-09T00:55:59.270Z,13.28
2017-06-09T00:56:03.959Z,13.44
2017-06-09T00:56:08.392Z,13.39
2017-06-09T00:56:12.706Z,13.29